createdAt,value
2023-04-07T00:00:08.734Z,5.30
2023-04-07T00:10:11.890Z,6.00
2023-04-07T00:20:16.165Z,6.60
2023-04-07T00:30:18.975Z,6.60
2023-04-07T00:40:23.240Z,6.45
2023-04-07T00:50:26.628Z,6.15
2023-04-07T01:00:32.783Z,6.53
2023-04-07T01:10:42.995Z,5.95
2023-04-07T01:20:50.484Z,8.03
2023-04-07T01:30:57.846Z,7.72
2023-04-07T01:41:02.846Z,8.13
2023-04-07T01:51:07.725Z,7.95
2023-04-07T02:01:10.756Z,9.00
2023-04-07T02:11:17.497Z,9.55
2023-04-07T02:21:21.371Z,8.35
2023-04-07T02:31:25.558Z,8.68
2023-04-07T02:41:28.510Z,8.27
2023-04-07T02:51:32.686Z,8.38
2023-04-07T03:01:36.315Z,9.13
2023-04-07T03:11:41.550Z,8.02
2023-04-07T03:21:44.421Z,9.18
2023-04-07T03:31:48.596Z,8.80
2023-04-07T03:41:51.681Z,10.00
2023-04-07T03:51:55.848Z,11.18
2023-04-07T04:01:58.780Z,10.50
2023-04-07T04:12:02.971Z,11.40
2023-04-07T04:22:05.656Z,12.57
2023-04-07T04:32:09.698Z,12.15
2023-04-07T04:42:12.617Z,13.35
2023-04-07T04:52:16.928Z,13.15
2023-04-07T05:02:19.760Z,14.00
2023-04-07T05:12:23.938Z,14.43
2023-04-07T05:22:26.630Z,14.50
2023-04-07T05:32:30.738Z,12.90
2023-04-07T05:42:33.368Z,12.68
2023-04-07T05:52:37.357Z,11.70
2023-04-07T06:02:40.858Z,12.10
2023-04-07T06:12:45.167Z,10.80
2023-04-07T06:22:47.906Z,9.82
2023-04-07T06:32:51.996Z,8.93
2023-04-07T06:42:56.637Z,8.95
2023-04-07T06:53:00.983Z,9.10
2023-04-07T07:03:03.873Z,9.63
2023-04-07T07:13:08.221Z,9.05
2023-04-07T07:23:11.497Z,8.45
2023-04-07T07:33:15.544Z,8.52
2023-04-07T07:43:18.185Z,8.48
2023-04-07T07:53:22.198Z,7.47
2023-04-07T08:03:25.109Z,8.57
2023-04-07T08:13:29.255Z,7.85
2023-04-07T08:23:32.227Z,8.05
2023-04-07T08:33:36.351Z,7.00
2023-04-07T08:43:40.009Z,7.15
2023-04-07T08:53:50.137Z,6.10
2023-04-07T09:03:53.417Z,7.07
2023-04-07T09:13:59.043Z,6.70
2023-04-07T09:24:01.906Z,7.47
2023-04-07T09:34:24.315Z,7.82
2023-04-07T09:44:27.306Z,7.25
2023-04-07T09:54:38.953Z,7.32
2023-04-07T10:04:42.423Z,6.60
2023-04-07T10:14:48.231Z,6.93
2023-04-07T10:24:57.328Z,7.00
2023-04-07T10:35:03.004Z,7.30
2023-04-07T10:45:06.661Z,7.00
2023-04-07T10:55:39.402Z,8.57
2023-04-07T11:05:43.056Z,7.18
2023-04-07T11:15:51.212Z,7.90
2023-04-07T11:25:55.353Z,8.55
2023-04-07T11:36:01.433Z,9.63
2023-04-07T11:46:09.462Z,9.65
2023-04-07T11:56:18.381Z,10.68
2023-04-07T12:06:29.072Z,10.98
2023-04-07T12:16:34.017Z,10.40
2023-04-07T12:26:38.602Z,10.02
2023-04-07T12:36:42.661Z,8.95
2023-04-07T12:46:45.462Z,9.00
2023-04-07T12:56:49.753Z,8.88
2023-04-07T13:06:52.550Z,9.25
2023-04-07T13:16:56.795Z,9.15
2023-04-07T13:27:00.101Z,8.43
2023-04-07T13:37:04.780Z,8.07
2023-04-07T13:47:08.610Z,8.70
2023-04-07T13:57:14.506Z,8.32
2023-04-07T14:07:17.556Z,7.63
2023-04-07T14:17:21.948Z,6.95
2023-04-07T14:27:24.743Z,6.93
2023-04-07T14:37:29.212Z,6.07
2023-04-07T14:47:32.002Z,6.43
2023-04-07T14:57:36.104Z,6.40
2023-04-07T15:07:38.858Z,6.07
2023-04-07T15:17:44.972Z,6.78
2023-04-07T15:27:48.203Z,6.55
2023-04-07T15:37:52.302Z,5.95
2023-04-07T15:47:55.091Z,6.63
2023-04-07T15:57:59.365Z,5.80
2023-04-07T16:08:02.082Z,6.35
2023-04-07T16:18:08.341Z,6.03
2023-04-07T16:28:11.199Z,5.03
2023-04-07T16:38:15.329Z,5.38
2023-04-07T16:48:18.148Z,5.30
2023-04-07T16:58:22.348Z,5.25
2023-04-07T17:08:25.742Z,5.22
2023-04-07T17:18:29.924Z,5.47
2023-04-07T17:28:32.814Z,4.65
2023-04-07T17:38:36.896Z,4.07
2023-04-07T17:48:39.580Z,5.07
2023-04-07T17:58:45.455Z,5.05
2023-04-07T18:08:49.791Z,4.88
2023-04-07T18:18:53.814Z,4.70
2023-04-07T18:28:57.491Z,6.35
2023-04-07T18:39:01.536Z,5.05
2023-04-07T18:49:04.556Z,5.32
2023-04-07T18:59:08.742Z,5.60
2023-04-07T19:09:11.642Z,5.57
2023-04-07T19:19:16.883Z,4.50
2023-04-07T19:29:19.690Z,3.85
2023-04-07T19:39:23.764Z,3.88
2023-04-07T19:49:26.609Z,3.03
2023-04-07T19:59:30.704Z,3.17
2023-04-07T20:09:33.434Z,2.72
2023-04-07T20:19:37.542Z,3.00
2023-04-07T20:29:40.208Z,3.10
2023-04-07T20:39:44.217Z,3.25
2023-04-07T20:49:47.068Z,3.17
2023-04-07T20:59:51.163Z,3.33
2023-04-07T21:09:53.871Z,3.40
2023-04-07T21:19:57.969Z,3.78
2023-04-07T21:30:01.081Z,3.55
2023-04-07T21:40:05.968Z,4.10
2023-04-07T21:50:09.369Z,4.40
2023-04-07T22:00:15.819Z,4.30
2023-04-07T22:10:18.488Z,5.57
2023-04-07T22:20:22.757Z,4.63
2023-04-07T22:30:25.757Z,4.55
2023-04-07T22:40:30.019Z,4.93
2023-04-07T22:50:32.688Z,5.38
2023-04-07T23:00:36.723Z,4.88
2023-04-07T23:10:39.553Z,5.35
2023-04-07T23:20:50.882Z,5.07
2023-04-07T23:30:54.701Z,5.03
2023-04-07T23:40:58.714Z,4.95
2023-04-07T23:51:01.381Z,5.43
